Portada
METAR-TAF:

METAR-TAF

Aeroports :

Base Aèria de Morón

Morón de la Frontera, Espanya

latitud: 37-09N, longitud: 005-37W, altitud: 87 m

Observació

L'informe es va fer fa 32 minuts, a les 07:00 UTC
Vent 2 kt amb direcció variable
Temperatura 20°C
Humitat 83%
Pressió 1017 hPa
Visibilitat: 7000 m
Cel ennuvolat a una alçada de 1800 ft

METAR: LEMO 250700Z VRB02KT 7000 BKN018 20/17 Q1017 NOSIG

Hora: 09:32 (07:32 UTC)

Pronòstic

L'informe es va fer fa 2 hores i 32 minuts, a les 05:00 UTC
Pronòstic vàlid del 25 a les 06 UTC al 25 a les 15 UTC
Vent 5 kt del Oest/Sud-Oest
Visibilitat 10 km o més
Núvols disperses a una alçada de 2000 ft
Probabilitat 40% :
Temporalment
l' 25 a les 06 UTC al 25 a les 08 UTC
Cel ennuvolat a una alçada de 900 ft

TAF: LEMO 250500Z 2506/2515 24005KT 9999 SCT020 PROB40 TEMPO 2506/2508 BKN009

Observacions i pronòstics meteorològics de més de 4000 aeroports (METAR i TAF).

Les estacions disponibles són els punts grocs i vermells al mapa.

Posi el ratolí al punt desitjat per veure el nom de l'estació.

Feu clic per veure les observacions i els pronòstics meteorològics.

Per canviar el mapa: feu clic els botons verds amb una creu de color negre per apropar; al botó verd amb un guió per allunyar la imatge; o en les fletxes verdes per a mapes adjacents.


METAR-TAF: